Time;durP1;ratioP1;P1;durP2;ratioP2;P2;SDS_P1;SDS_P2;PMS_P1;PMS_P2;Temp;Humidity;BMP_temperature;BMP_pressure;BME280_temperature;BME280_humidity;BME280_pressure;Samples;Min_cycle;Max_cycle;Signal;HPM_P1;HPM_P2
2022/08/04 00:02:35;;;;;;;8.08;4.30;;;;;;;22.02;72.35;100274.64;2806919;81;21673;-86
2022/08/04 00:07:01;;;;;;;6.25;4.15;;;;;;;21.94;73.96;100274.80;2817751;81;21043;-88
2022/08/04 00:11:03;;;;;;;6.08;4.50;;;;;;;21.81;74.63;100271.52;2816413;82;21595;-88
2022/08/04 00:15:09;;;;;;;4.25;3.50;;;;;;;21.66;75.35;100273.83;2809489;82;21526;-86
2022/08/04 00:19:29;;;;;;;6.85;4.25;;;;;;;21.59;75.30;100270.23;2803304;83;21032;-87
2022/08/04 00:23:36;;;;;;;6.35;4.60;;;;;;;21.65;74.61;100272.69;2830541;82;21055;-88
2022/08/04 00:27:38;;;;;;;4.92;4.17;;;;;;;21.70;74.26;100276.98;2818108;82;21067;-88
2022/08/04 00:31:42;;;;;;;8.15;4.62;;;;;;;21.71;74.71;100277.30;2836923;82;21031;-86
2022/08/04 00:35:45;;;;;;;5.85;4.90;;;;;;;21.59;75.21;100273.44;2794887;82;21130;-87
2022/08/04 00:39:48;;;;;;;7.40;5.28;;;;;;;21.46;76.21;100268.28;2778330;84;21103;-85
2022/08/04 00:44:07;;;;;;;6.42;4.10;;;;;;;21.43;75.55;100268.67;2811326;81;21069;-87
2022/08/04 00:48:17;;;;;;;13.53;5.75;;;;;;;21.44;75.70;100269.50;2820192;82;21054;-88
2022/08/04 00:52:36;;;;;;;6.97;4.50;;;;;;;21.40;75.75;100275.81;2801935;82;21756;-88
2022/08/04 00:57:12;;;;;;;5.20;4.65;;;;;;;21.29;76.30;100273.14;2827340;82;21087;-87
2022/08/04 01:01:34;;;;;;;5.60;5.20;;;;;;;21.28;76.34;100273.35;2832363;82;21107;-87
2022/08/04 01:06:01;;;;;;;9.33;6.30;;;;;;;21.25;76.51;100267.31;2714267;85;21105;-87
2022/08/04 01:10:46;;;;;;;7.22;5.17;;;;;;;21.37;76.17;100277.56;2720575;85;21049;-87
2022/08/04 01:15:04;;;;;;;9.20;6.80;;;;;;;21.36;76.50;100271.84;2722168;84;21062;-84
2022/08/04 01:19:20;;;;;;;7.25;6.28;;;;;;;21.42;76.23;100279.19;2732006;84;21606;-87
2022/08/04 01:23:36;;;;;;;7.25;5.72;;;;;;;21.35;76.71;100279.13;2741459;84;21051;-86
2022/08/04 01:28:11;;;;;;;6.90;5.25;;;;;;;21.34;76.68;100278.81;2747738;84;21075;-87
2022/08/04 01:32:26;;;;;;;5.35;4.87;;;;;;;21.34;76.76;100281.52;2727256;85;21040;-86
2022/08/04 01:36:34;;;;;;;6.87;6.17;;;;;;;21.36;76.74;100274.04;2739404;84;21080;-87
2022/08/04 01:40:38;;;;;;;6.17;5.65;;;;;;;21.37;76.80;100273.51;2691115;85;21377;-87
2022/08/04 01:44:40;;;;;;;6.72;6.03;;;;;;;21.38;76.75;100280.09;2766724;85;21083;-88
2022/08/04 01:48:46;;;;;;;8.78;5.42;;;;;;;21.41;76.38;100282.89;2815089;82;21109;-88
2022/08/04 01:52:51;;;;;;;7.72;5.83;;;;;;;21.36;76.86;100284.01;2864362;80;21095;-88
2022/08/04 01:56:57;;;;;;;;;;;;;;;21.33;76.95;100280.35;2811308;82;21026;-88
2022/08/04 02:01:11;;;;;;;7.72;5.45;;;;;;;21.28;77.35;100278.77;2787945;83;20148;-86
2022/08/04 02:05:19;;;;;;;6.43;5.10;;;;;;;21.22;77.44;100279.88;2814036;82;21117;-85
2022/08/04 02:09:47;;;;;;;8.50;5.35;;;;;;;21.19;77.71;100272.13;2814599;82;22172;-88
2022/08/04 02:14:39;;;;;;;6.75;5.12;;;;;;;21.12;77.79;100268.55;2725499;84;21158;-85
2022/08/04 02:18:44;;;;;;;10.20;5.65;;;;;;;21.06;78.12;100264.75;2807116;83;21011;-85
2022/08/04 02:23:03;;;;;;;8.48;5.08;;;;;;;20.96;78.50;100262.38;2783278;83;21071;-87
2022/08/04 02:27:05;;;;;;;9.03;6.08;;;;;;;20.87;79.16;100256.81;2797582;83;21042;-88
2022/08/04 02:31:18;;;;;;;9.48;5.95;;;;;;;20.82;79.83;100257.89;2796731;82;21046;-88
2022/08/04 02:35:26;;;;;;;10.28;6.47;;;;;;;20.72;80.63;100257.36;2809246;82;21074;-86
2022/08/04 02:39:32;;;;;;;15.00;6.17;;;;;;;20.60;80.72;100256.52;2775312;83;21099;-87
2022/08/04 02:43:36;;;;;;;6.90;6.20;;;;;;;20.58;81.23;100255.88;2802411;83;21052;-87
2022/08/04 02:47:38;;;;;;;6.15;5.55;;;;;;;20.45;82.07;100246.30;2818452;81;21050;-85
2022/08/04 02:51:48;;;;;;;7.67;5.70;;;;;;;20.45;81.86;100254.41;2820363;82;21164;-89
2022/08/04 02:55:51;;;;;;;17.30;6.72;;;;;;;20.45;81.85;100253.05;2801687;83;21034;-86
2022/08/04 03:00:09;;;;;;;9.70;5.35;;;;;;;20.35;82.84;100251.48;2797748;83;21074;-85
2022/08/04 03:04:25;;;;;;;7.62;6.37;;;;;;;20.35;82.29;100254.19;2794521;82;21074;-88
2022/08/04 03:08:50;;;;;;;7.17;5.40;;;;;;;20.34;82.55;100264.67;2718918;85;21070;-87
2022/08/04 03:13:27;;;;;;;10.73;7.07;;;;;;;20.37;82.49;100264.28;2719155;86;21056;-90
2022/08/04 03:17:49;;;;;;;7.92;6.20;;;;;;;20.39;82.06;100261.41;2820823;82;21082;-88
2022/08/04 03:22:19;;;;;;;8.63;7.20;;;;;;;20.38;82.08;100266.48;2802194;82;21082;-89
2022/08/04 03:26:37;;;;;;;6.35;5.60;;;;;;;20.32;82.17;100270.78;2807753;82;21085;-88
2022/08/04 03:31:18;;;;;;;11.65;6.40;;;;;;;20.10;83.44;100263.98;2797797;84;21099;-86
2022/08/04 03:35:45;;;;;;;6.70;5.33;;;;;;;19.97;83.95;100268.72;2795596;83;21150;-87
2022/08/04 03:40:35;;;;;;;19.15;7.72;;;;;;;20.02;83.83;100262.73;2769346;83;21063;-88
2022/08/04 03:45:22;;;;;;;6.40;5.03;;;;;;;19.73;85.73;100261.72;2810740;83;21187;-87
2022/08/04 03:49:55;;;;;;;10.88;5.83;;;;;;;19.51;86.82;100265.67;2840337;81;21189;-85
2022/08/04 03:54:14;;;;;;;7.33;6.03;;;;;;;19.49;87.48;100265.03;2807107;82;21018;-87
2022/08/04 03:58:27;;;;;;;7.55;5.75;;;;;;;19.52;87.37;100266.00;2821751;81;21058;-87
2022/08/04 04:03:13;;;;;;;6.17;5.65;;;;;;;19.65;87.07;100268.05;2817146;82;21396;-87
2022/08/04 04:07:42;;;;;;;10.13;5.22;;;;;;;19.77;86.93;100272.46;2805830;81;21051;-86
2022/08/04 04:12:02;;;;;;;6.25;5.65;;;;;;;19.93;85.97;100275.49;2805765;82;21107;-86
2022/08/04 04:16:23;;;;;;;10.40;6.08;;;;;;;20.25;85.02;100273.40;2792071;83;20995;-87
2022/08/04 04:20:59;;;;;;;14.73;6.58;;;;;;;20.54;84.21;100268.09;2797340;83;21100;-88
2022/08/04 04:25:42;;;;;;;6.28;5.67;;;;;;;20.74;83.68;100265.61;2783746;81;21207;-89
2022/08/04 04:29:49;;;;;;;9.40;5.87;;;;;;;21.49;81.18;100270.58;2704444;86;21153;-83
2022/08/04 04:34:14;;;;;;;7.50;5.12;;;;;;;22.58;78.36;100271.91;2700402;86;21686;-88
2022/08/04 04:38:30;;;;;;;7.45;6.25;;;;;;;23.34;74.14;100265.80;2693495;86;21087;-88
2022/08/04 04:43:05;;;;;;;6.40;5.70;;;;;;;24.20;72.28;100264.42;2728073;85;21035;-88
2022/08/04 04:47:30;;;;;;;6.80;5.55;;;;;;;24.91;68.43;100257.06;2719342;86;21067;-87
2022/08/04 04:51:58;;;;;;;31.00;7.95;;;;;;;25.32;67.32;100259.42;2545165;90;21107;-87
2022/08/04 04:56:28;;;;;;;6.45;4.62;;;;;;;25.63;65.37;100270.75;2584914;90;21629;-89
2022/08/04 05:00:59;;;;;;;5.92;4.67;;;;;;;25.92;64.24;100276.51;2536067;90;21133;-88
2022/08/04 05:05:44;;;;;;;6.95;4.35;;;;;;;26.58;63.43;100270.94;2480876;92;21154;-85
2022/08/04 05:09:57;;;;;;;7.28;4.87;;;;;;;27.37;61.53;100265.23;2403637;96;21151;-88
2022/08/04 05:14:12;;;;;;;6.33;4.60;;;;;;;28.07;60.15;100264.55;2448832;95;21119;-85
2022/08/04 05:18:17;;;;;;;;;;;;;;;28.50;58.48;100259.08;2486516;93;21115;-86
2022/08/04 05:22:24;;;;;;;5.20;4.70;;;;;;;28.65;57.78;100259.88;2505082;93;20168;-88
2022/08/04 05:26:31;;;;;;;5.70;5.20;;;;;;;28.55;58.00;100256.98;2478892;94;21096;-85
2022/08/04 05:30:45;;;;;;;9.80;4.47;;;;;;;28.68;57.07;100254.46;2474874;94;21219;-88
2022/08/04 05:34:59;;;;;;;4.75;4.22;;;;;;;28.47;57.96;100265.58;2545825;91;21598;-87
2022/08/04 05:39:03;;;;;;;3.98;3.52;;;;;;;28.53;57.73;100258.30;2484785;93;21149;-87
2022/08/04 05:43:05;;;;;;;38.80;10.77;;;;;;;28.74;57.19;100258.13;2690691;85;21055;-87
2022/08/04 05:47:10;;;;;;;10.35;4.95;;;;;;;28.57;57.42;100260.30;2814458;82;21033;-87
2022/08/04 05:51:14;;;;;;;6.90;4.83;;;;;;;28.40;58.04;100240.30;2806972;83;21008;-89
2022/08/04 05:55:17;;;;;;;4.10;3.70;;;;;;;28.40;57.95;100264.91;2803172;82;21562;-87
2022/08/04 05:59:19;;;;;;;9.55;5.67;;;;;;;28.44;58.39;100266.07;2817626;82;21030;-88
2022/08/04 06:03:23;;;;;;;44.55;8.40;;;;;;;28.71;57.92;100266.83;2809337;83;21095;-88
2022/08/04 06:07:25;;;;;;;6.25;3.70;;;;;;;28.78;57.25;100251.06;2816414;82;21082;-84
2022/08/04 06:11:29;;;;;;;5.12;4.28;;;;;;;29.28;56.01;100269.09;2812628;83;21059;-85
2022/08/04 06:15:32;;;;;;;3.45;3.15;;;;;;;29.60;55.66;100268.48;2788406;81;21075;-86
2022/08/04 06:19:35;;;;;;;7.60;3.75;;;;;;;29.99;55.37;100264.31;2793076;83;21110;-85
2022/08/04 06:23:40;;;;;;;4.65;3.22;;;;;;;30.46;53.78;100264.81;2816786;81;20997;-85
2022/08/04 06:27:43;;;;;;;3.40;2.92;;;;;;;30.56;54.04;100265.45;2820940;81;21879;-87
2022/08/04 06:31:46;;;;;;;4.17;3.27;;;;;;;30.82;53.14;100266.54;2821329;81;21297;-86
2022/08/04 06:35:47;;;;;;;8.45;3.72;;;;;;;31.22;52.10;100260.81;2841098;81;21075;-88
2022/08/04 06:39:50;;;;;;;4.50;3.47;;;;;;;31.35;50.24;100257.60;2809870;82;20993;-87
2022/08/04 06:43:52;;;;;;;6.80;2.98;;;;;;;31.48;50.79;100254.92;2804052;83;21059;-87
2022/08/04 06:47:55;;;;;;;3.00;2.70;;;;;;;31.23;50.36;100252.85;2826783;82;21138;-87
2022/08/04 06:51:59;;;;;;;5.42;2.77;;;;;;;30.89;50.58;100254.81;2829032;81;21059;-89
2022/08/04 06:56:01;;;;;;;11.43;3.87;;;;;;;30.84;50.58;100255.31;2813907;83;21267;-87
2022/08/04 07:00:10;;;;;;;4.65;2.17;;;;;;;30.91;49.54;100252.62;2814338;83;21103;-84
2022/08/04 07:04:12;;;;;;;3.98;2.50;;;;;;;31.08;49.79;100255.77;2803851;83;21589;-87
2022/08/04 07:08:14;;;;;;;9.20;3.80;;;;;;;31.18;49.47;100253.08;2803659;81;21051;-84
2022/08/04 07:12:20;;;;;;;3.40;2.85;;;;;;;31.03;50.23;100255.71;2816598;81;21054;-86
2022/08/04 07:16:23;;;;;;;65.22;10.68;;;;;;;31.09;50.70;100253.30;2802230;83;21042;-86
2022/08/04 07:20:27;;;;;;;7.00;3.25;;;;;;;31.34;50.25;100253.20;2835272;82;21098;-87
2022/08/04 07:24:33;;;;;;;9.13;3.20;;;;;;;31.43;48.96;100255.71;2772926;83;21394;-85
2022/08/04 07:28:34;;;;;;;5.00;3.37;;;;;;;31.48;49.30;100251.64;2792561;84;21634;-86
2022/08/04 07:32:40;;;;;;;4.22;2.87;;;;;;;31.70;49.01;100257.52;2802989;83;21047;-82
2022/08/04 07:36:41;;;;;;;31.52;6.62;;;;;;;31.90;48.41;100252.65;2799532;83;21122;-89
2022/08/04 07:40:43;;;;;;;6.50;2.90;;;;;;;31.83;48.18;100254.00;2809176;82;21046;-88
2022/08/04 07:44:45;;;;;;;20.40;6.10;;;;;;;32.04;48.72;100246.65;2782942;83;21571;-87
2022/08/04 07:48:47;;;;;;;7.70;3.20;;;;;;;32.02;48.60;100244.72;2852913;82;21075;-88
2022/08/04 07:52:50;;;;;;;115.57;21.82;;;;;;;32.30;50.09;100243.94;2827504;81;21472;-88
2022/08/04 07:56:52;;;;;;;5.85;2.72;;;;;;;32.30;48.87;100240.66;2789074;83;21047;-87
2022/08/04 08:00:53;;;;;;;7.30;3.40;;;;;;;32.23;48.80;100240.10;2800409;82;21027;-86
2022/08/04 08:04:55;;;;;;;3.65;3.30;;;;;;;32.42;48.39;100245.08;2798455;81;21559;-87
2022/08/04 08:08:59;;;;;;;10.98;2.62;;;;;;;32.59;48.44;100244.84;2809322;83;21091;-87
2022/08/04 08:13:01;;;;;;;6.37;2.75;;;;;;;32.76;48.18;100241.80;2803750;82;21063;-88
2022/08/04 08:17:04;;;;;;;7.00;4.05;;;;;;;32.74;47.34;100237.12;2819146;82;21046;-85
2022/08/04 08:21:06;;;;;;;3.17;2.62;;;;;;;32.86;46.97;100234.92;2817802;82;21121;-87
2022/08/04 08:25:10;;;;;;;3.20;2.87;;;;;;;33.00;46.55;100234.36;2801204;83;21046;-87
2022/08/04 08:29:12;;;;;;;10.98;3.65;;;;;;;33.21;46.29;100228.27;2812124;82;21067;-87
2022/08/04 08:33:16;;;;;;;82.75;16.05;;;;;;;33.21;45.51;100235.16;2813624;83;21085;-85
2022/08/04 08:37:34;;;;;;;2.70;2.50;;;;;;;33.18;46.28;100239.28;2811110;81;20985;-84
2022/08/04 08:42:03;;;;;;;3.35;2.33;;;;;;;33.36;44.43;100225.20;2816054;81;21055;-84
2022/08/04 08:46:31;;;;;;;3.52;2.47;;;;;;;33.27;44.43;100227.14;2779787;84;21087;-85
2022/08/04 08:50:56;;;;;;;20.17;4.90;;;;;;;33.47;44.04;100223.53;2799019;83;21007;-89
2022/08/04 08:55:27;;;;;;;2.75;2.15;;;;;;;33.53;44.82;100222.12;2810655;82;21012;-85
2022/08/04 08:59:53;;;;;;;2.77;2.20;;;;;;;33.65;44.25;100228.15;2802678;83;21035;-85
2022/08/04 09:04:15;;;;;;;3.92;2.50;;;;;;;33.67;42.51;100225.93;2806130;83;21033;-88
2022/08/04 09:08:42;;;;;;;5.58;2.80;;;;;;;33.72;42.72;100227.28;2849937;81;21003;-87
2022/08/04 09:13:25;;;;;;;4.42;2.25;;;;;;;33.75;44.52;100223.95;2794406;83;21080;-88
2022/08/04 09:17:34;;;;;;;5.75;2.27;;;;;;;33.91;42.18;100228.02;2800538;81;21134;-86
2022/08/04 09:22:00;;;;;;;6.70;3.50;;;;;;;34.03;43.89;100229.07;2801980;83;21108;-87
2022/08/04 09:26:28;;;;;;;21.77;5.12;;;;;;;34.10;43.07;100221.32;2770066;81;21023;-81
2022/08/04 09:30:44;;;;;;;2.37;1.90;;;;;;;34.13;43.42;100217.14;2799230;83;21083;-88
2022/08/04 09:35:13;;;;;;;3.15;2.37;;;;;;;34.11;44.32;100214.69;2831993;82;21056;-84
2022/08/04 09:39:28;;;;;;;2.77;1.77;;;;;;;34.27;43.87;100216.78;2798013;82;21071;-89
2022/08/04 09:44:07;;;;;;;3.20;2.40;;;;;;;34.16;42.27;100212.43;2743701;84;21047;-86
2022/08/04 09:48:23;;;;;;;4.40;3.05;;;;;;;34.03;43.92;100216.66;2816969;83;21063;-89
2022/08/04 09:52:54;;;;;;;5.67;2.87;;;;;;;33.95;42.15;100212.53;2784532;83;21086;-88
2022/08/04 09:57:41;;;;;;;3.00;2.75;;;;;;;34.00;43.49;100209.80;2808876;83;21074;-84
2022/08/04 10:01:46;;;;;;;4.03;2.60;;;;;;;34.03;44.24;100203.70;2803851;83;21040;-86
2022/08/04 10:06:20;;;;;;;16.95;5.17;;;;;;;34.02;43.49;100211.71;2798588;82;21055;-84
2022/08/04 10:10:55;;;;;;;2.47;2.00;;;;;;;33.93;44.01;100206.48;2783501;83;21079;-87
2022/08/04 10:15:10;;;;;;;6.60;2.60;;;;;;;33.93;42.06;100206.48;2824566;82;21079;-88
2022/08/04 10:19:28;;;;;;;2.67;2.45;;;;;;;33.85;42.97;100204.34;2809880;83;21051;-88
2022/08/04 10:23:53;;;;;;;3.65;2.47;;;;;;;33.90;44.58;100200.16;2805853;83;21573;-89
2022/08/04 10:27:59;;;;;;;5.12;3.02;;;;;;;33.96;44.78;100194.90;2804989;82;21486;-88
2022/08/04 10:32:28;;;;;;;5.12;3.65;;;;;;;34.08;43.08;100193.73;2820930;81;21520;-88
2022/08/04 10:36:41;;;;;;;4.50;3.27;;;;;;;33.98;42.49;100189.92;2703664;85;21088;-88
2022/08/04 10:41:06;;;;;;;4.90;3.05;;;;;;;33.95;43.24;100187.70;2703125;85;21155;-86
2022/08/04 10:45:22;;;;;;;2.72;2.52;;;;;;;33.95;42.47;100184.95;2717740;85;21084;-90
2022/08/04 10:49:34;;;;;;;5.80;3.58;;;;;;;34.03;42.09;100181.62;2710043;84;21075;-83
2022/08/04 10:53:38;;;;;;;3.52;3.20;;;;;;;34.07;43.00;100179.67;2718677;82;21289;-89
2022/08/04 10:57:57;;;;;;;3.25;2.95;;;;;;;34.13;44.00;100169.70;2801828;82;21109;-88
2022/08/04 11:02:23;;;;;;;8.68;3.70;;;;;;;34.17;42.55;100176.82;2795640;83;21091;-89
2022/08/04 11:06:26;;;;;;;4.17;3.77;;;;;;;34.12;41.83;100168.59;2818782;82;21039;-88
2022/08/04 11:10:32;;;;;;;3.52;3.22;;;;;;;34.13;42.14;100175.75;2778669;83;21535;-89
2022/08/04 11:15:03;;;;;;;7.42;3.17;;;;;;;34.11;42.26;100162.80;2782761;83;21131;-88
2022/08/04 11:19:39;;;;;;;4.10;3.12;;;;;;;34.00;41.62;100169.80;2795799;83;21044;-89
2022/08/04 11:23:45;;;;;;;4.92;3.25;;;;;;;34.00;43.51;100167.03;2820349;82;21578;-88
2022/08/04 11:28:04;;;;;;;4.55;3.20;;;;;;;34.11;41.63;100155.36;2770028;83;21154;-88
2022/08/04 11:32:19;;;;;;;3.60;3.25;;;;;;;34.19;42.64;100152.52;2782391;83;21059;-84
2022/08/04 11:36:52;;;;;;;3.58;2.87;;;;;;;34.31;42.72;100167.35;2811361;82;21144;-87
2022/08/04 11:41:02;;;;;;;4.60;3.10;;;;;;;34.31;42.56;100169.55;2803507;82;21018;-84
2022/08/04 11:45:08;;;;;;;34.63;10.38;;;;;;;34.35;43.62;100164.28;2827159;82;21023;-84
2022/08/04 11:49:40;;;;;;;3.27;2.98;;;;;;;34.32;42.88;100161.53;2798503;82;21047;-86
2022/08/04 11:53:43;;;;;;;5.95;3.50;;;;;;;34.47;42.30;100159.75;2797957;83;21004;-83
2022/08/04 11:57:44;;;;;;;4.67;3.05;;;;;;;34.57;42.37;100150.01;2792720;83;21121;-84
2022/08/04 12:02:28;;;;;;;16.25;5.85;;;;;;;34.52;43.42;100149.25;2812411;83;21055;-84
2022/08/04 12:06:58;;;;;;;4.80;3.35;;;;;;;34.39;41.76;100154.84;2774780;83;21060;-87
2022/08/04 12:11:27;;;;;;;12.40;3.55;;;;;;;34.56;41.68;100148.94;2808576;81;21724;-87
2022/08/04 12:16:01;;;;;;;3.47;3.00;;;;;;;34.56;43.32;100151.12;2814807;82;21034;-85
2022/08/04 12:20:06;;;;;;;3.52;2.95;;;;;;;34.56;43.89;100145.59;2821312;82;21095;-88
2022/08/04 12:24:25;;;;;;;2.90;2.65;;;;;;;34.56;43.94;100143.41;2789491;82;20977;-88
2022/08/04 12:28:34;;;;;;;3.45;3.15;;;;;;;34.73;42.92;100149.86;2799100;83;21027;-86
2022/08/04 12:32:42;;;;;;;3.30;3.00;;;;;;;34.81;42.02;100145.09;2836238;82;21034;-87
2022/08/04 12:37:16;;;;;;;4.72;3.85;;;;;;;34.73;44.76;100140.19;2789747;83;21115;-89
2022/08/04 12:41:23;;;;;;;40.23;8.55;;;;;;;34.87;41.85;100145.30;2813388;83;21598;-87
2022/08/04 12:45:25;;;;;;;3.25;2.98;;;;;;;34.91;41.45;100137.80;2795199;84;21083;-87
2022/08/04 12:49:27;;;;;;;2.47;2.27;;;;;;;34.75;41.99;100138.80;2806477;83;21024;-86
2022/08/04 12:53:41;;;;;;;5.42;3.17;;;;;;;34.76;41.99;100120.27;2805402;82;21066;-89
2022/08/04 12:57:44;;;;;;;4.17;2.35;;;;;;;34.77;41.93;100126.62;2809390;81;21415;-85
2022/08/04 13:01:48;;;;;;;5.60;2.83;;;;;;;35.01;41.51;100117.00;2820450;82;21035;-87
2022/08/04 13:05:54;;;;;;;20.40;5.93;;;;;;;35.15;40.50;100117.09;2835078;81;21057;-86
2022/08/04 13:09:57;;;;;;;14.38;4.10;;;;;;;34.88;41.31;100119.31;2778819;83;21115;-88
2022/08/04 13:13:59;;;;;;;3.00;2.80;;;;;;;34.94;41.07;100112.34;2787440;83;21011;-89
2022/08/04 13:18:07;;;;;;;16.05;4.33;;;;;;;35.04;43.71;100109.50;2790680;83;21019;-85
2022/08/04 13:22:08;;;;;;;3.17;2.50;;;;;;;35.04;44.24;100106.73;2802019;82;21083;-86
2022/08/04 13:26:15;;;;;;;2.62;2.25;;;;;;;35.10;41.39;100093.69;2807202;83;21027;-88
2022/08/04 13:30:19;;;;;;;2.58;1.95;;;;;;;35.08;42.20;100099.49;2824686;81;21395;-87
2022/08/04 13:34:21;;;;;;;6.47;2.37;;;;;;;34.94;41.71;100093.00;2812234;81;21688;-87
2022/08/04 13:38:25;;;;;;;4.22;3.27;;;;;;;35.02;42.35;100095.16;2818676;81;21014;-90
2022/08/04 13:42:28;;;;;;;2.65;2.45;;;;;;;35.07;40.34;100086.80;2821339;81;21078;-88
2022/08/04 13:46:35;;;;;;;5.00;3.73;;;;;;;35.08;40.50;100080.15;2836836;82;21058;-88
2022/08/04 13:50:37;;;;;;;3.62;2.17;;;;;;;35.06;40.41;100079.62;2812760;82;21055;-88
2022/08/04 13:54:43;;;;;;;28.75;5.92;;;;;;;35.10;40.25;100073.77;2767892;83;21098;-88
2022/08/04 13:58:46;;;;;;;5.12;2.80;;;;;;;35.06;41.42;100074.09;2792313;82;21565;-85
2022/08/04 14:03:05;;;;;;;4.90;3.45;;;;;;;35.02;40.67;100070.29;2795117;83;21833;-89
2022/08/04 14:07:16;;;;;;;3.02;2.72;;;;;;;34.92;40.23;100065.69;2766272;83;21123;-89
2022/08/04 14:11:23;;;;;;;3.75;2.40;;;;;;;34.85;41.05;100061.89;2804872;82;21566;-85
2022/08/04 14:15:40;;;;;;;4.87;2.87;;;;;;;34.84;41.21;100057.48;2799216;83;21039;-86
2022/08/04 14:19:55;;;;;;;2.47;2.27;;;;;;;34.88;40.22;100061.84;2837607;81;21538;-90
2022/08/04 14:23:57;;;;;;;3.42;2.85;;;;;;;34.86;40.05;100064.09;2838454;81;21052;-85
2022/08/04 14:28:00;;;;;;;3.87;3.22;;;;;;;34.84;40.30;100063.02;2775245;83;21554;-90
2022/08/04 14:32:05;;;;;;;4.03;2.85;;;;;;;34.82;41.99;100064.41;2826304;82;21082;-89
2022/08/04 14:36:07;;;;;;;4.97;2.95;;;;;;;34.93;40.38;100061.80;2824128;81;21905;-85
2022/08/04 14:40:14;;;;;;;38.88;8.68;;;;;;;34.97;42.37;100052.34;2796057;83;21058;-88
2022/08/04 14:44:16;;;;;;;4.35;2.27;;;;;;;35.11;40.82;100050.53;2802161;83;21035;-89
2022/08/04 14:48:17;;;;;;;33.25;6.35;;;;;;;35.17;39.31;100041.05;2812457;82;21027;-88
2022/08/04 14:52:24;;;;;;;3.22;2.47;;;;;;;35.12;41.30;100035.59;2834787;82;21106;-87
2022/08/04 14:56:26;;;;;;;5.15;3.08;;;;;;;35.12;40.43;100035.59;2803541;82;21046;-91
2022/08/04 15:00:35;;;;;;;13.00;4.50;;;;;;;35.20;40.00;100029.16;2809573;82;21058;-88
2022/08/04 15:04:39;;;;;;;2.77;2.37;;;;;;;35.04;41.21;100029.36;2778947;83;21118;-86
2022/08/04 15:08:40;;;;;;;2.77;2.37;;;;;;;35.05;40.62;100031.02;2803281;83;21046;-90
2022/08/04 15:12:42;;;;;;;4.03;2.42;;;;;;;35.08;40.64;100029.03;2809350;83;21003;-90
2022/08/04 15:16:44;;;;;;;4.22;3.50;;;;;;;35.02;39.98;100027.46;2771736;82;21032;-89
2022/08/04 15:20:46;;;;;;;2.85;2.65;;;;;;;34.67;41.04;100018.48;2764369;83;40570;-90
2022/08/04 15:24:47;;;;;;;4.00;2.95;;;;;;;34.85;41.76;100012.17;2811606;82;21005;-91
2022/08/04 15:28:54;;;;;;;12.55;5.53;;;;;;;34.88;40.70;100014.88;2829263;82;21003;-89
2022/08/04 15:33:00;;;;;;;39.20;10.20;;;;;;;34.73;40.22;100011.22;2820784;82;21835;-88
2022/08/04 15:37:05;;;;;;;5.40;3.62;;;;;;;34.77;40.70;100012.81;2804968;81;21051;-89
2022/08/04 15:41:24;;;;;;;9.40;4.45;;;;;;;34.78;40.83;100015.03;2783585;82;21063;-90
2022/08/04 15:45:26;;;;;;;3.72;2.83;;;;;;;34.70;41.09;100010.98;2798069;83;21587;-89
2022/08/04 15:49:27;;;;;;;3.47;2.27;;;;;;;34.60;41.33;100005.02;2800249;83;21063;-89
2022/08/04 15:53:32;;;;;;;4.35;2.72;;;;;;;34.66;41.88;100011.31;2826693;82;21551;-89
2022/08/04 15:58:03;;;;;;;14.83;4.58;;;;;;;34.57;40.67;100007.00;2787856;83;21095;-88
2022/08/04 16:02:37;;;;;;;4.28;3.30;;;;;;;34.61;40.96;99994.23;2809672;83;21064;-89
2022/08/04 16:06:42;;;;;;;5.42;4.92;;;;;;;34.27;42.43;99995.14;2681771;87;21074;-87
2022/08/04 16:10:46;;;;;;;2.98;2.25;;;;;;;34.12;41.94;100003.03;2688412;86;21075;-88
2022/08/04 16:14:47;;;;;;;3.87;2.60;;;;;;;34.15;41.75;100003.28;2676787;86;21053;-87
2022/08/04 16:18:49;;;;;;;4.65;2.75;;;;;;;34.01;41.86;100001.77;2632013;87;21048;-88
2022/08/04 16:22:53;;;;;;;3.10;2.75;;;;;;;33.95;42.08;100010.34;2646375;88;21053;-87
2022/08/04 16:27:02;;;;;;;8.85;3.92;;;;;;;33.97;42.33;100009.53;2677372;86;21182;-89
2022/08/04 16:31:06;;;;;;;8.15;3.90;;;;;;;33.93;42.11;99998.21;2689531;86;21058;-83
2022/08/04 16:35:27;;;;;;;3.58;3.27;;;;;;;33.89;41.73;99999.34;2696336;84;21053;-84
2022/08/04 16:39:29;;;;;;;44.15;11.65;;;;;;;33.82;41.66;99995.30;2671003;86;21010;-89
2022/08/04 16:43:32;;;;;;;3.37;3.00;;;;;;;33.75;42.56;99996.43;2772926;83;21019;-87
2022/08/04 16:47:54;;;;;;;4.30;3.90;;;;;;;33.49;43.16;100000.52;2787130;82;21042;-87
2022/08/04 16:52:05;;;;;;;21.30;6.10;;;;;;;33.43;43.01;99999.18;2796924;82;21190;-89
2022/08/04 16:56:09;;;;;;;12.93;4.83;;;;;;;33.23;43.50;99996.53;2802109;82;21083;-89
2022/08/04 17:00:11;;;;;;;8.53;3.95;;;;;;;33.10;43.29;99997.97;2792950;81;21386;-88
2022/08/04 17:04:13;;;;;;;4.15;3.75;;;;;;;32.97;43.53;99999.41;2813709;81;21085;-90
2022/08/04 17:08:16;;;;;;;19.80;6.78;;;;;;;32.89;43.50;99997.53;2824025;82;21039;-89
2022/08/04 17:12:17;;;;;;;3.25;2.92;;;;;;;32.68;43.41;99989.06;2844615;81;21122;-85
2022/08/04 17:16:21;;;;;;;3.30;3.10;;;;;;;32.62;42.64;99997.36;2762257;83;21051;-86
2022/08/04 17:20:26;;;;;;;4.15;3.75;;;;;;;32.55;42.80;99999.56;2810003;83;21044;-90
2022/08/04 17:24:29;;;;;;;5.47;3.45;;;;;;;32.40;42.69;99992.19;2804770;83;21055;-88
2022/08/04 17:28:31;;;;;;;4.97;2.77;;;;;;;32.40;42.84;99992.72;2820871;82;21059;-89
2022/08/04 17:32:34;;;;;;;3.95;2.65;;;;;;;32.31;42.31;99983.65;2821074;82;21294;-89
2022/08/04 17:36:38;;;;;;;3.93;3.50;;;;;;;32.29;42.56;99997.40;2808951;82;21082;-89
2022/08/04 17:41:01;;;;;;;22.75;5.25;;;;;;;32.18;43.01;99995.22;2845229;82;21052;-88
2022/08/04 17:45:12;;;;;;;3.65;3.35;;;;;;;32.16;42.92;99997.43;2828262;82;21070;-87
2022/08/04 17:49:27;;;;;;;3.25;2.98;;;;;;;32.05;43.28;99987.00;2813401;83;21035;-89
2022/08/04 17:53:33;;;;;;;3.47;3.17;;;;;;;31.90;43.76;99991.41;2800167;83;21094;-94
2022/08/04 17:57:34;;;;;;;5.70;4.20;;;;;;;31.86;43.62;99995.00;2806115;82;21047;-91
2022/08/04 18:01:51;;;;;;;5.83;3.60;;;;;;;31.75;43.78;99996.34;2845750;80;22404;-92
2022/08/04 18:05:53;;;;;;;3.70;3.42;;;;;;;31.64;44.13;99996.05;2835496;81;21038;-89
2022/08/04 18:09:55;;;;;;;4.85;3.87;;;;;;;31.46;44.99;99991.39;2775466;83;21043;-87
2022/08/04 18:13:57;;;;;;;5.03;3.30;;;;;;;31.33;45.19;99989.97;2783433;83;21745;-88
2022/08/04 18:17:59;;;;;;;3.58;3.15;;;;;;;31.22;45.48;99997.09;2727680;83;21049;-91
2022/08/04 18:22:02;;;;;;;7.17;4.65;;;;;;;31.05;45.86;99998.12;2804293;82;21099;-90
2022/08/04 18:26:05;;;;;;;4.60;3.90;;;;;;;30.89;46.46;99997.25;2790746;82;21058;-92
2022/08/04 18:30:09;;;;;;;15.53;3.65;;;;;;;30.72;46.73;99991.42;2807873;81;21380;-93
2022/08/04 18:34:10;;;;;;;4.95;4.17;;;;;;;30.57;47.30;100000.95;2804793;83;21090;-93
2022/08/04 18:38:11;;;;;;;13.85;5.28;;;;;;;30.35;47.90;99996.41;2794122;83;21117;-91
2022/08/04 18:42:13;;;;;;;9.65;4.05;;;;;;;30.16;48.22;99998.22;2835044;82;21037;-92
2022/08/04 18:46:15;;;;;;;6.25;4.08;;;;;;;29.95;48.67;100000.50;2804751;83;21042;-93
2022/08/04 18:50:17;;;;;;;5.72;3.95;;;;;;;29.76;48.94;100007.22;2801357;82;21035;-94
2022/08/04 18:54:19;;;;;;;7.95;4.65;;;;;;;29.57;49.20;100012.24;2839891;82;21089;-94
2022/08/04 18:58:20;;;;;;;4.85;4.25;;;;;;;29.39;49.75;100018.90;2810863;83;21079;-96
2022/08/04 19:02:22;;;;;;;7.12;4.60;;;;;;;29.24;49.77;100026.95;2881656;80;21045;-93
2022/08/04 19:06:35;;;;;;;7.08;4.05;;;;;;;29.11;50.38;100026.28;2815099;80;21006;-95
2022/08/04 19:10:36;;;;;;;8.70;4.58;;;;;;;28.90;50.78;100031.51;2885795;80;21633;-89
2022/08/04 19:14:38;;;;;;;7.78;4.50;;;;;;;28.76;50.96;100039.22;2868802;80;20999;-85
2022/08/04 19:18:40;;;;;;;6.20;4.65;;;;;;;28.60;51.66;100044.22;2811905;80;21037;-89
2022/08/04 19:22:43;;;;;;;13.62;5.25;;;;;;;28.39;52.02;100039.79;2867290;79;21015;-88
2022/08/04 19:26:45;;;;;;;5.97;4.47;;;;;;;28.25;52.29;100037.95;2894654;80;21046;-87
2022/08/04 19:30:47;;;;;;;20.30;7.30;;;;;;;28.13;52.61;100037.20;2898168;79;21007;-90